Susan Miller — WDC6990 — position and weather

sailwx.info

Track history (hours):
 
Tides and Currents Weather Stations Pressure Air Temp Water Temp Dewpoint Dewpoint Depression Visibility Wind Speed Wind Dir Waves Ship Positions

Susan Miller

Owner: Miller's Tug & Barge, Staten Island, NY. More information available from US FCC via Universal Licensing System and Coast Guard Vessel Documentation Center.

Last reported at 2017-Dec-15 04:00 UTC. Time now 2017-Dec-15 04:27 UTC.
Position N 40°48' W 073°52'.

Length 20 m; draft 3 m.

Type: Tug. MMSI: 367064470.

Date/timePositionNaut miles runAvg speedWind from/ knotsBaromVisibWave heightAir tempDewpointWater temp
2017-Dec-15 04:00N 40°48' W 073°52'4 3.0
2017-Dec-15 02:30N 40°46' W 073°57'6 4.1
2017-Dec-15 01:00N 40°41' W 074°02'2 3.6
2017-Dec-15 00:30N 40°40' W 074°04'2 0.1
2017-Dec-13 22:36N 40°38' W 074°04'0 0.0
2017-Dec-13 22:30N 40°38' W 074°04'0 0.0
2017-Dec-13 22:00N 40°38' W 074°04'0 0.1
2017-Dec-13 21:30N 40°38' W 074°04'0 0.1
2017-Dec-13 20:59N 40°38' W 074°04'0 0.0
2017-Dec-13 20:30N 40°38' W 074°04'1 2.9
2017-Dec-13 20:00N 40°39' W 074°06'0 0.2
2017-Dec-13 18:16N 40°39' W 074°06'2 7.1
2017-Dec-13 18:00N 40°39' W 074°04'0 0.1
2017-Dec-13 12:42N 40°38' W 074°04'0 0.0
2017-Dec-12 22:43N 40°38' W 074°04'0 0.6
2017-Dec-12 22:30N 40°38' W 074°04'2 4.5
2017-Dec-12 22:00N 40°40' W 074°04'0 0.3
2017-Dec-12 21:30N 40°40' W 074°04'3 5.3
2017-Dec-12 21:01N 40°42' W 074°02'3 5.9
2017-Dec-12 20:30N 40°45' W 074°01'0 0.5
2017-Dec-12 20:00N 40°46' W 074°01'2 3.4
2017-Dec-12 19:30N 40°44' W 074°01'3 6.8
2017-Dec-12 19:01N 40°41' W 074°03'1 2.1
2017-Dec-12 18:30N 40°41' W 074°04'0 0.4
2017-Dec-12 18:00N 40°40' W 074°04'1 2.4
2017-Dec-12 17:30N 40°39' W 074°04'3 5.8
2017-Dec-12 17:01N 40°39' W 074°08'3 4.7
2017-Dec-12 16:26N 40°38' W 074°12'1 1.2
2017-Dec-12 15:58N 40°39' W 074°11'3 4.2
2017-Dec-12 15:19N 40°39' W 074°07'2 5.0
2017-Dec-12 15:00N 40°39' W 074°05'2 4.3
2017-Dec-12 14:30N 40°41' W 074°04'0 0.3
2017-Dec-12 14:00N 40°41' W 074°04'0 0.1
2017-Dec-12 13:30N 40°41' W 074°04'0 0.0
2017-Dec-12 12:59N 40°41' W 074°04'1 1.2
2017-Dec-12 12:29N 40°41' W 074°04'0 0.0
2017-Dec-12 12:00N 40°41' W 074°04'1 2.8
2017-Dec-12 11:31N 40°40' W 074°04'1 0.1
2017-Dec-12 00:30N 40°38' W 074°04'2 4.6
2017-Dec-12 00:00N 40°40' W 074°04'0 0.5
2017-Dec-11 23:30N 40°41' W 074°04'0 0.3
2017-Dec-11 23:00N 40°41' W 074°04'2 4.2
2017-Dec-11 22:30N 40°42' W 074°02'3 5.8
2017-Dec-11 22:00N 40°45' W 074°01'1 1.9
2017-Dec-11 21:30N 40°45' W 074°01'0 0.3
2017-Dec-11 21:00N 40°46' W 074°01'0 0.3
2017-Dec-11 20:30N 40°46' W 074°01'2 3.6
2017-Dec-11 20:00N 40°44' W 074°01'3 6.5
2017-Dec-11 19:30N 40°41' W 074°02'3 6.3
2017-Dec-11 19:00N 40°44' W 074°01'4 8.4
2017-Dec-11 18:30N 40°48' W 073°59'4 8.5
2017-Dec-11 17:59N 40°52' W 073°57'4 0.9
2017-Dec-11 13:45N 40°56' W 073°55'2 8.1
2017-Dec-11 13:30N 40°54' W 073°56'4 7.9
2017-Dec-11 13:00N 40°50' W 073°58'4 8.4
2017-Dec-11 12:30N 40°46' W 074°00'4 8.7
2017-Dec-11 12:00N 40°42' W 074°02'  
2017-Dec-09 03:33N 40°38' W 074°04'0 0.3
2017-Dec-09 03:30N 40°38' W 074°04'0 0.1
2017-Dec-09 03:00N 40°38' W 074°04'0 0.0
2017-Dec-09 02:28N 40°38' W 074°04'2 3.4
2017-Dec-09 02:00N 40°39' W 074°03'3 5.8
2017-Dec-09 01:31N 40°42' W 074°01'0 0.1
2017-Dec-09 01:00N 40°42' W 074°01'0 0.2
2017-Dec-09 00:30N 40°42' W 074°01'1 1.4
2017-Dec-09 00:01N 40°41' W 074°01'3 5.5
2017-Dec-08 23:30N 40°39' W 074°03'1 2.1
2017-Dec-08 23:00N 40°38' W 074°04'0 0.0
2017-Dec-08 22:30N 40°38' W 074°04'0 0.0
2017-Dec-08 22:00N 40°38' W 074°04'0 0.1
2017-Dec-08 21:30N 40°38' W 074°04'0 0.0
2017-Dec-08 21:00N 40°38' W 074°04'0 0.0
2017-Dec-08 20:30N 40°38' W 074°04'2 4.7
2017-Dec-08 20:01N 40°41' W 074°04'2 3.4
2017-Dec-08 19:30N 40°39' W 074°05'0 1.0
2017-Dec-08 19:00N 40°39' W 074°05'1 1.6
2017-Dec-08 18:31N 40°38' W 074°04'0 0.6
2017-Dec-08 18:00N 40°38' W 074°04'0 0.0
2017-Dec-08 17:30N 40°38' W 074°04'2 3.4
2017-Dec-08 17:00N 40°39' W 074°03'3 6.1
2017-Dec-08 16:30N 40°42' W 074°01'2 4.5
2017-Dec-08 16:00N 40°40' W 074°03'4 8.2
2017-Dec-08 15:30N 40°39' W 074°08'4 3.3
2017-Dec-08 14:18N 40°36' W 074°12'2 6.6
2017-Dec-08 14:00N 40°38' W 074°12'3 6.3
2017-Dec-08 13:30N 40°39' W 074°08'4 7.3
2017-Dec-08 13:00N 40°40' W 074°03'3 6.3
2017-Dec-08 12:31N 40°42' W 074°00'0 0.8
2017-Dec-08 12:00N 40°41' W 074°00'4 7.3
2017-Dec-08 11:30N 40°39' W 074°04'1 0.1
2017-Dec-07 21:30N 40°38' W 074°04'0 0.7
2017-Dec-07 21:00N 40°39' W 074°04'3 5.5
2017-Dec-07 20:30N 40°39' W 074°08'2 3.1
2017-Dec-07 20:00N 40°39' W 074°10'3 5.5
2017-Dec-07 19:30N 40°39' W 074°06'2 3.3
2017-Dec-07 19:00N 40°38' W 074°04'0 0.5
2017-Dec-07 18:29N 40°38' W 074°04'0 0.5
2017-Dec-07 18:00N 40°38' W 074°04'2 3.2
2017-Dec-07 17:29N 40°40' W 074°03'2 4.1
2017-Dec-07 17:01N 40°42' W 074°03'0 0.0
2017-Dec-07 16:30N 40°42' W 074°03'0 0.0
2017-Dec-07 16:00N 40°42' W 074°03'0 0.0
2017-Dec-07 15:30N 40°42' W 074°03'0 0.0
2017-Dec-07 15:00N 40°42' W 074°03'0 0.8
2017-Dec-07 14:30N 40°42' W 074°02'1 2.5
2017-Dec-07 14:00N 40°40' W 074°03'2 4.8
2017-Dec-07 13:29N 40°38' W 074°04'0 0.0
2017-Dec-07 13:00N 40°38' W 074°04'0 0.0
2017-Dec-07 12:30N 40°38' W 074°04'0 0.0
2017-Dec-07 12:00N 40°38' W 074°04'0 0.1
2017-Dec-07 11:30N 40°38' W 074°04'0 0.0
2017-Dec-06 21:27N 40°38' W 074°04'0 0.0
2017-Dec-06 21:00N 40°38' W 074°04'  
Track history (hours):
 
Tides and Currents Weather Stations Pressure Air Temp Water Temp Dewpoint Dewpoint Depression Visibility Wind Speed Wind Dir Waves Ship Positions

Susan Miller

Owner: Miller's Tug & Barge, Staten Island, NY. More information available from US FCC via Universal Licensing System and Coast Guard Vessel Documentation Center.

Last reported at 2017-Dec-15 04:00 UTC. Time now 2017-Dec-15 04:27 UTC.
Position N 40°48' W 073°52'.

Length 20 m; draft 3 m.

Type: Tug. MMSI: 367064470.

Date/timePositionNaut miles runAvg speedWind from/ knotsBaromVisibWave heightAir tempDewpointWater temp
2017-Dec-15 04:00N 40°48' W 073°52'4 3.0
2017-Dec-15 02:30N 40°46' W 073°57'6 4.1
2017-Dec-15 01:00N 40°41' W 074°02'2 3.6
2017-Dec-15 00:30N 40°40' W 074°04'2 0.1
2017-Dec-13 22:36N 40°38' W 074°04'0 0.0
2017-Dec-13 22:30N 40°38' W 074°04'0 0.0
2017-Dec-13 22:00N 40°38' W 074°04'0 0.1
2017-Dec-13 21:30N 40°38' W 074°04'0 0.1
2017-Dec-13 20:59N 40°38' W 074°04'0 0.0
2017-Dec-13 20:30N 40°38' W 074°04'1 2.9
2017-Dec-13 20:00N 40°39' W 074°06'0 0.2
2017-Dec-13 18:16N 40°39' W 074°06'2 7.1
2017-Dec-13 18:00N 40°39' W 074°04'0 0.1
2017-Dec-13 12:42N 40°38' W 074°04'0 0.0
2017-Dec-12 22:43N 40°38' W 074°04'0 0.6
2017-Dec-12 22:30N 40°38' W 074°04'2 4.5
2017-Dec-12 22:00N 40°40' W 074°04'0 0.3
2017-Dec-12 21:30N 40°40' W 074°04'3 5.3
2017-Dec-12 21:01N 40°42' W 074°02'3 5.9
2017-Dec-12 20:30N 40°45' W 074°01'0 0.5
2017-Dec-12 20:00N 40°46' W 074°01'2 3.4
2017-Dec-12 19:30N 40°44' W 074°01'3 6.8
2017-Dec-12 19:01N 40°41' W 074°03'1 2.1
2017-Dec-12 18:30N 40°41' W 074°04'0 0.4
2017-Dec-12 18:00N 40°40' W 074°04'1 2.4
2017-Dec-12 17:30N 40°39' W 074°04'3 5.8
2017-Dec-12 17:01N 40°39' W 074°08'3 4.7
2017-Dec-12 16:26N 40°38' W 074°12'1 1.2
2017-Dec-12 15:58N 40°39' W 074°11'3 4.2
2017-Dec-12 15:19N 40°39' W 074°07'2 5.0
2017-Dec-12 15:00N 40°39' W 074°05'2 4.3
2017-Dec-12 14:30N 40°41' W 074°04'0 0.3
2017-Dec-12 14:00N 40°41' W 074°04'0 0.1
2017-Dec-12 13:30N 40°41' W 074°04'0 0.0
2017-Dec-12 12:59N 40°41' W 074°04'1 1.2
2017-Dec-12 12:29N 40°41' W 074°04'0 0.0
2017-Dec-12 12:00N 40°41' W 074°04'1 2.8
2017-Dec-12 11:31N 40°40' W 074°04'1 0.1
2017-Dec-12 00:30N 40°38' W 074°04'2 4.6
2017-Dec-12 00:00N 40°40' W 074°04'0 0.5
2017-Dec-11 23:30N 40°41' W 074°04'0 0.3
2017-Dec-11 23:00N 40°41' W 074°04'2 4.2
2017-Dec-11 22:30N 40°42' W 074°02'3 5.8
2017-Dec-11 22:00N 40°45' W 074°01'1 1.9
2017-Dec-11 21:30N 40°45' W 074°01'0 0.3
2017-Dec-11 21:00N 40°46' W 074°01'0 0.3
2017-Dec-11 20:30N 40°46' W 074°01'2 3.6
2017-Dec-11 20:00N 40°44' W 074°01'3 6.5
2017-Dec-11 19:30N 40°41' W 074°02'3 6.3
2017-Dec-11 19:00N 40°44' W 074°01'4 8.4
2017-Dec-11 18:30N 40°48' W 073°59'4 8.5
2017-Dec-11 17:59N 40°52' W 073°57'4 0.9
2017-Dec-11 13:45N 40°56' W 073°55'2 8.1
2017-Dec-11 13:30N 40°54' W 073°56'4 7.9
2017-Dec-11 13:00N 40°50' W 073°58'4 8.4
2017-Dec-11 12:30N 40°46' W 074°00'4 8.7
2017-Dec-11 12:00N 40°42' W 074°02'  
2017-Dec-09 03:33N 40°38' W 074°04'0 0.3
2017-Dec-09 03:30N 40°38' W 074°04'0 0.1
2017-Dec-09 03:00N 40°38' W 074°04'0 0.0
2017-Dec-09 02:28N 40°38' W 074°04'2 3.4
2017-Dec-09 02:00N 40°39' W 074°03'3 5.8
2017-Dec-09 01:31N 40°42' W 074°01'0 0.1
2017-Dec-09 01:00N 40°42' W 074°01'0 0.2
2017-Dec-09 00:30N 40°42' W 074°01'1 1.4
2017-Dec-09 00:01N 40°41' W 074°01'3 5.5
2017-Dec-08 23:30N 40°39' W 074°03'1 2.1
2017-Dec-08 23:00N 40°38' W 074°04'0 0.0
2017-Dec-08 22:30N 40°38' W 074°04'0 0.0
2017-Dec-08 22:00N 40°38' W 074°04'0 0.1
2017-Dec-08 21:30N 40°38' W 074°04'0 0.0
2017-Dec-08 21:00N 40°38' W 074°04'0 0.0
2017-Dec-08 20:30N 40°38' W 074°04'2 4.7
2017-Dec-08 20:01N 40°41' W 074°04'2 3.4
2017-Dec-08 19:30N 40°39' W 074°05'0 1.0
2017-Dec-08 19:00N 40°39' W 074°05'1 1.6
2017-Dec-08 18:31N 40°38' W 074°04'0 0.6
2017-Dec-08 18:00N 40°38' W 074°04'0 0.0
2017-Dec-08 17:30N 40°38' W 074°04'2 3.4
2017-Dec-08 17:00N 40°39' W 074°03'3 6.1
2017-Dec-08 16:30N 40°42' W 074°01'2 4.5
2017-Dec-08 16:00N 40°40' W 074°03'4 8.2
2017-Dec-08 15:30N 40°39' W 074°08'4 3.3
2017-Dec-08 14:18N 40°36' W 074°12'2 6.6
2017-Dec-08 14:00N 40°38' W 074°12'3 6.3
2017-Dec-08 13:30N 40°39' W 074°08'4 7.3
2017-Dec-08 13:00N 40°40' W 074°03'3 6.3
2017-Dec-08 12:31N 40°42' W 074°00'0 0.8
2017-Dec-08 12:00N 40°41' W 074°00'4 7.3
2017-Dec-08 11:30N 40°39' W 074°04'1 0.1
2017-Dec-07 21:30N 40°38' W 074°04'0 0.7
2017-Dec-07 21:00N 40°39' W 074°04'3 5.5
2017-Dec-07 20:30N 40°39' W 074°08'2 3.1
2017-Dec-07 20:00N 40°39' W 074°10'3 5.5
2017-Dec-07 19:30N 40°39' W 074°06'2 3.3
2017-Dec-07 19:00N 40°38' W 074°04'0 0.5
2017-Dec-07 18:29N 40°38' W 074°04'0 0.5
2017-Dec-07 18:00N 40°38' W 074°04'2 3.2
2017-Dec-07 17:29N 40°40' W 074°03'2 4.1
2017-Dec-07 17:01N 40°42' W 074°03'0 0.0
2017-Dec-07 16:30N 40°42' W 074°03'0 0.0
2017-Dec-07 16:00N 40°42' W 074°03'0 0.0
2017-Dec-07 15:30N 40°42' W 074°03'0 0.0
2017-Dec-07 15:00N 40°42' W 074°03'0 0.8
2017-Dec-07 14:30N 40°42' W 074°02'1 2.5
2017-Dec-07 14:00N 40°40' W 074°03'2 4.8
2017-Dec-07 13:29N 40°38' W 074°04'0 0.0
2017-Dec-07 13:00N 40°38' W 074°04'0 0.0
2017-Dec-07 12:30N 40°38' W 074°04'0 0.0
2017-Dec-07 12:00N 40°38' W 074°04'0 0.1
2017-Dec-07 11:30N 40°38' W 074°04'0 0.0
2017-Dec-06 21:27N 40°38' W 074°04'0 0.0
2017-Dec-06 21:00N 40°38' W 074°04'  

Dump ship's entire track history